HVN772 YSSY-VVTS
Flight info
| Callsign | HVN772 |
|---|---|
| Flight time | N/A |
| Altitude | 38000 |
| Route | KADOM A576 POLEV T25 TNK J30 DOSAM/N0485F400 J30 TN J251 DN M768 AKMON/K0902F400 M768 ELSAS ELSAS5G |
| Aircraft | A359/H-SDE2E3GHIJ3J4J5LM1ORWXY/LB1D1 |
Departure
| Time | 2026-04-25 02:37 |
|---|---|
| Airport | Sydney Kingsford Smith International Airport (YSSY) |
Arrival
| Time | N/A |
|---|---|
| Airport | Tan Son Nhat International Airport (VVTS) |
| Time | Latitude | Longitude | Altitude | Speed | Heading |
|---|---|---|---|---|---|
| 2026-04-25 02:05 | -33.93890 | 151.16863 | 36 ft | 0 kts | 74° |
| 2026-04-25 02:21 | -33.93895 | 151.16841 | 51 ft | 4 kts | 74° |
| 2026-04-25 02:21 | -33.93902 | 151.16809 | 35 ft | 4 kts | 79° |
| 2026-04-25 02:21 | -33.93904 | 151.16778 | 35 ft | 4 kts | 110° |
| 2026-04-25 02:22 | -33.93896 | 151.16764 | 32 ft | 0 kts | 163° |
| 2026-04-25 02:22 | -33.93915 | 151.16771 | 34 ft | 4 kts | 163° |
| 2026-04-25 02:22 | -33.93935 | 151.16777 | 36 ft | 4 kts | 169° |
| 2026-04-25 02:22 | -33.93949 | 151.16781 | 36 ft | 0 kts | 164° |
| 2026-04-25 02:27 | -33.93958 | 151.16784 | 36 ft | 2 kts | 164° |
| 2026-04-25 02:27 | -33.94003 | 151.16800 | 36 ft | 11 kts | 164° |
| 2026-04-25 02:27 | -33.94053 | 151.16840 | 36 ft | 8 kts | 109° |
| 2026-04-25 02:27 | -33.94045 | 151.16915 | 36 ft | 11 kts | 76° |
| 2026-04-25 02:28 | -33.94020 | 151.17021 | 36 ft | 14 kts | 73° |
| 2026-04-25 02:28 | -33.93991 | 151.17137 | 36 ft | 14 kts | 73° |
| 2026-04-25 02:28 | -33.94006 | 151.17228 | 35 ft | 11 kts | 144° |
| 2026-04-25 02:28 | -33.94087 | 151.17255 | 35 ft | 13 kts | 167° |
| 2026-04-25 02:29 | -33.94184 | 151.17281 | 35 ft | 15 kts | 167° |
| 2026-04-25 02:29 | -33.94290 | 151.17308 | 36 ft | 16 kts | 168° |
| 2026-04-25 02:29 | -33.94418 | 151.17340 | 37 ft | 22 kts | 168° |
| 2026-04-25 02:29 | -33.94582 | 151.17383 | 37 ft | 26 kts | 167° |
| 2026-04-25 02:30 | -33.94762 | 151.17429 | 36 ft | 27 kts | 168° |
| 2026-04-25 02:30 | -33.94945 | 151.17477 | 36 ft | 26 kts | 167° |
| 2026-04-25 02:30 | -33.95115 | 151.17522 | 36 ft | 25 kts | 168° |
| 2026-04-25 02:30 | -33.95287 | 151.17566 | 35 ft | 26 kts | 168° |
| 2026-04-25 02:31 | -33.95464 | 151.17612 | 36 ft | 26 kts | 168° |
| 2026-04-25 02:31 | -33.95645 | 151.17659 | 36 ft | 27 kts | 168° |
| 2026-04-25 02:31 | -33.95826 | 151.17706 | 36 ft | 26 kts | 168° |
| 2026-04-25 02:31 | -33.96007 | 151.17754 | 36 ft | 27 kts | 168° |
| 2026-04-25 02:32 | -33.96191 | 151.17801 | 36 ft | 24 kts | 168° |
| 2026-04-25 02:32 | -33.96332 | 151.17837 | 36 ft | 18 kts | 168° |
| 2026-04-25 02:32 | -33.96417 | 151.17870 | 36 ft | 12 kts | 142° |
| 2026-04-25 02:32 | -33.96434 | 151.17921 | 36 ft | 0 kts | 91° |
| 2026-04-25 02:35 | -33.96434 | 151.17930 | 36 ft | 4 kts | 89° |
| 2026-04-25 02:35 | -33.96425 | 151.17997 | 36 ft | 12 kts | 76° |
| 2026-04-25 02:35 | -33.96369 | 151.18047 | 36 ft | 12 kts | 359° |
| 2026-04-25 02:36 | -33.96289 | 151.18029 | 34 ft | 17 kts | 348° |
| 2026-04-25 02:36 | -33.95978 | 151.17949 | 34 ft | 77 kts | 348° |
| 2026-04-25 02:36 | -33.95260 | 151.17762 | 36 ft | 132 kts | 347° |
| 2026-04-25 02:36 | -33.94222 | 151.17491 | 237 ft | 158 kts | 347° |
| 2026-04-25 02:37 | -33.93170 | 151.17130 | 825 ft | 162 kts | 339° |
| 2026-04-25 02:37 | -33.92256 | 151.16315 | 1283 ft | 174 kts | 307° |
| 2026-04-25 02:37 | -33.91844 | 151.14863 | 1494 ft | 191 kts | 283° |
| 2026-04-25 02:37 | -33.91461 | 151.13307 | 1892 ft | 198 kts | 294° |
| 2026-04-25 02:38 | -33.90838 | 151.11781 | 2208 ft | 209 kts | 299° |
| 2026-04-25 02:38 | -33.90107 | 151.10204 | 2510 ft | 222 kts | 304° |
| 2026-04-25 02:38 | -33.89142 | 151.08674 | 2791 ft | 239 kts | 311° |
| 2026-04-25 02:38 | -33.88039 | 151.07111 | 3212 ft | 250 kts | 312° |
| 2026-04-25 02:39 | -33.86891 | 151.05518 | 3767 ft | 254 kts | 312° |
| 2026-04-25 02:39 | -33.85721 | 151.03901 | 4313 ft | 258 kts | 312° |
| 2026-04-25 02:39 | -33.84643 | 151.02168 | 4927 ft | 261 kts | 300° |
| 2026-04-25 02:39 | -33.84030 | 151.00092 | 5413 ft | 267 kts | 284° |
| 2026-04-25 02:40 | -33.83632 | 150.97890 | 5983 ft | 270 kts | 282° |
| 2026-04-25 02:40 | -33.83246 | 150.95667 | 6555 ft | 273 kts | 282° |
| 2026-04-25 02:40 | -33.82853 | 150.93441 | 7175 ft | 272 kts | 282° |
| 2026-04-25 02:40 | -33.82450 | 150.91202 | 7690 ft | 276 kts | 282° |
| 2026-04-25 02:41 | -33.82039 | 150.88932 | 8183 ft | 280 kts | 282° |
| 2026-04-25 02:41 | -33.81618 | 150.86627 | 8709 ft | 284 kts | 282° |
| 2026-04-25 02:41 | -33.81192 | 150.84297 | 9244 ft | 287 kts | 282° |
| 2026-04-25 02:41 | -33.80760 | 150.81943 | 9785 ft | 290 kts | 282° |
| 2026-04-25 02:42 | -33.80320 | 150.79553 | 10220 ft | 298 kts | 282° |
| 2026-04-25 02:42 | -33.79872 | 150.77111 | 10658 ft | 303 kts | 282° |
| 2026-04-25 02:42 | -33.79407 | 150.74590 | 10899 ft | 315 kts | 282° |
| 2026-04-25 02:42 | -33.78921 | 150.71966 | 11141 ft | 328 kts | 282° |
| 2026-04-25 02:43 | -33.78418 | 150.69244 | 11364 ft | 340 kts | 282° |
| 2026-04-25 02:43 | -33.77896 | 150.66422 | 11579 ft | 352 kts | 282° |
| 2026-04-25 02:43 | -33.77355 | 150.63505 | 11812 ft | 363 kts | 282° |
| 2026-04-25 02:43 | -33.76799 | 150.60508 | 12014 ft | 373 kts | 282° |
| 2026-04-25 02:44 | -33.76226 | 150.57425 | 12236 ft | 382 kts | 282° |
| 2026-04-25 02:44 | -33.75641 | 150.54291 | 12587 ft | 387 kts | 282° |
| 2026-04-25 02:44 | -33.75051 | 150.51128 | 13019 ft | 388 kts | 282° |
| 2026-04-25 02:44 | -33.74458 | 150.47958 | 13459 ft | 391 kts | 282° |
| 2026-04-25 02:45 | -33.73858 | 150.44752 | 13854 ft | 394 kts | 283° |
| 2026-04-25 02:45 | -33.73257 | 150.41536 | 14248 ft | 397 kts | 283° |
| 2026-04-25 02:45 | -33.72648 | 150.38291 | 14598 ft | 399 kts | 283° |
| 2026-04-25 02:45 | -33.72033 | 150.35023 | 14944 ft | 402 kts | 283° |
| 2026-04-25 02:46 | -33.71415 | 150.31746 | 15321 ft | 404 kts | 283° |
| 2026-04-25 02:46 | -33.70700 | 150.28467 | 15686 ft | 406 kts | 286° |
| 2026-04-25 02:46 | -33.69877 | 150.25221 | 16077 ft | 408 kts | 288° |
| 2026-04-25 02:46 | -33.68995 | 150.21973 | 16429 ft | 411 kts | 288° |
| 2026-04-25 02:47 | -33.68097 | 150.18751 | 16799 ft | 413 kts | 288° |
| 2026-04-25 02:47 | -33.67168 | 150.15433 | 17145 ft | 415 kts | 289° |
| 2026-04-25 02:47 | -33.66253 | 150.12143 | 17521 ft | 417 kts | 288° |
| 2026-04-25 02:47 | -33.65336 | 150.08826 | 17885 ft | 419 kts | 288° |
| 2026-04-25 02:48 | -33.64433 | 150.05538 | 18246 ft | 421 kts | 288° |
| 2026-04-25 02:48 | -33.63501 | 150.02140 | 18589 ft | 424 kts | 288° |
| 2026-04-25 02:48 | -33.62591 | 149.98815 | 18905 ft | 426 kts | 288° |
| 2026-04-25 02:48 | -33.61663 | 149.95432 | 19176 ft | 428 kts | 288° |
| 2026-04-25 02:49 | -33.61034 | 149.93135 | 19387 ft | 430 kts | 288° |
| 2026-04-25 02:49 | -33.60099 | 149.89726 | 19701 ft | 431 kts | 288° |
| 2026-04-25 02:49 | -33.59160 | 149.86308 | 20026 ft | 432 kts | 288° |
| 2026-04-25 02:49 | -33.58216 | 149.82877 | 20319 ft | 434 kts | 288° |
| 2026-04-25 02:50 | -33.57266 | 149.79428 | 20598 ft | 436 kts | 288° |
| 2026-04-25 02:50 | -33.56313 | 149.75973 | 20881 ft | 438 kts | 288° |
| 2026-04-25 02:50 | -33.55353 | 149.72501 | 21181 ft | 440 kts | 288° |
| 2026-04-25 02:50 | -33.54388 | 149.69013 | 21454 ft | 442 kts | 288° |
| 2026-04-25 02:51 | -33.53418 | 149.65509 | 21716 ft | 444 kts | 288° |
| 2026-04-25 02:51 | -33.52443 | 149.61994 | 22005 ft | 445 kts | 288° |
| 2026-04-25 02:51 | -33.51462 | 149.58464 | 22280 ft | 447 kts | 288° |
| 2026-04-25 02:51 | -33.50484 | 149.54945 | 22571 ft | 448 kts | 288° |
| 2026-04-25 02:52 | -33.49492 | 149.51382 | 22842 ft | 450 kts | 287° |
| 2026-04-25 02:52 | -33.48500 | 149.47823 | 23097 ft | 452 kts | 287° |
| 2026-04-25 02:52 | -33.47501 | 149.44246 | 23365 ft | 454 kts | 287° |
| 2026-04-25 02:52 | -33.46498 | 149.40656 | 23641 ft | 455 kts | 287° |
| 2026-04-25 02:53 | -33.45490 | 149.37050 | 23892 ft | 457 kts | 287° |
| 2026-04-25 02:53 | -33.44478 | 149.33439 | 24107 ft | 459 kts | 287° |
| 2026-04-25 02:53 | -33.43458 | 149.29802 | 24323 ft | 461 kts | 287° |
| 2026-04-25 02:53 | -33.42436 | 149.26165 | 24543 ft | 462 kts | 287° |
| 2026-04-25 02:54 | -33.41408 | 149.22510 | 24748 ft | 463 kts | 287° |
| 2026-04-25 02:54 | -33.40378 | 149.18854 | 24977 ft | 465 kts | 287° |
| 2026-04-25 02:54 | -33.39343 | 149.15182 | 25171 ft | 466 kts | 287° |
| 2026-04-25 02:54 | -33.38305 | 149.11505 | 25396 ft | 467 kts | 287° |
| 2026-04-25 02:55 | -33.37262 | 149.07817 | 25630 ft | 469 kts | 287° |
| 2026-04-25 02:55 | -33.36215 | 149.04118 | 25827 ft | 470 kts | 287° |
| 2026-04-25 02:55 | -33.35165 | 149.00412 | 26118 ft | 470 kts | 287° |
| 2026-04-25 02:55 | -33.34115 | 148.96714 | 26363 ft | 471 kts | 287° |
| 2026-04-25 02:56 | -33.33058 | 148.92992 | 26566 ft | 473 kts | 287° |
| 2026-04-25 02:56 | -33.31998 | 148.89265 | 26778 ft | 475 kts | 287° |
| 2026-04-25 02:56 | -33.30946 | 148.85572 | 27006 ft | 476 kts | 287° |
| 2026-04-25 02:56 | -33.29862 | 148.81773 | 27214 ft | 477 kts | 287° |
| 2026-04-25 02:57 | -33.28789 | 148.78017 | 27455 ft | 479 kts | 287° |
| 2026-04-25 02:57 | -33.27710 | 148.74245 | 27699 ft | 480 kts | 287° |
| 2026-04-25 02:57 | -33.26646 | 148.70528 | 27965 ft | 481 kts | 287° |
| 2026-04-25 02:57 | -33.25543 | 148.66681 | 28202 ft | 482 kts | 287° |
| 2026-04-25 02:58 | -33.24467 | 148.62936 | 28418 ft | 484 kts | 287° |
| 2026-04-25 02:58 | -33.23371 | 148.59123 | 28635 ft | 486 kts | 287° |
| 2026-04-25 02:58 | -33.22272 | 148.55301 | 28874 ft | 487 kts | 287° |
| 2026-04-25 02:58 | -33.21167 | 148.51471 | 29095 ft | 489 kts | 287° |
| 2026-04-25 02:59 | -33.20060 | 148.47635 | 29318 ft | 490 kts | 287° |
| 2026-04-25 02:59 | -33.18946 | 148.43781 | 29560 ft | 491 kts | 287° |
| 2026-04-25 02:59 | -33.17830 | 148.39923 | 29797 ft | 493 kts | 287° |
| 2026-04-25 02:59 | -33.16707 | 148.36048 | 30012 ft | 494 kts | 287° |
| 2026-04-25 03:00 | -33.15581 | 148.32168 | 30237 ft | 496 kts | 287° |
| 2026-04-25 03:00 | -33.14449 | 148.28269 | 30464 ft | 497 kts | 287° |
| 2026-04-25 03:00 | -33.13168 | 148.24424 | 30626 ft | 501 kts | 293° |
| 2026-04-25 03:00 | -33.11479 | 148.20770 | 30819 ft | 504 kts | 298° |
| 2026-04-25 03:01 | -33.09645 | 148.17204 | 31062 ft | 505 kts | 300° |
| 2026-04-25 03:01 | -33.07759 | 148.13681 | 31362 ft | 504 kts | 301° |
| 2026-04-25 03:01 | -33.05851 | 148.10184 | 31663 ft | 503 kts | 301° |
| 2026-04-25 03:01 | -33.03933 | 148.06689 | 31871 ft | 504 kts | 301° |
| 2026-04-25 03:02 | -33.02014 | 148.03194 | 32137 ft | 503 kts | 301° |
| 2026-04-25 03:02 | -33.00101 | 147.99702 | 32437 ft | 502 kts | 301° |
| 2026-04-25 03:02 | -32.98199 | 147.96221 | 32732 ft | 501 kts | 301° |
| 2026-04-25 03:02 | -32.96299 | 147.92739 | 33008 ft | 501 kts | 301° |
| 2026-04-25 03:03 | -32.94419 | 147.89294 | 33323 ft | 499 kts | 301° |
| 2026-04-25 03:03 | -32.92521 | 147.85816 | 33632 ft | 497 kts | 301° |
| 2026-04-25 03:03 | -32.90638 | 147.82368 | 33902 ft | 497 kts | 301° |
| 2026-04-25 03:03 | -32.88752 | 147.78917 | 34181 ft | 497 kts | 301° |
| 2026-04-25 03:04 | -32.86869 | 147.75476 | 34429 ft | 496 kts | 301° |
| 2026-04-25 03:04 | -32.84987 | 147.72039 | 34647 ft | 496 kts | 301° |
| 2026-04-25 03:04 | -32.83108 | 147.68611 | 34890 ft | 495 kts | 301° |
| 2026-04-25 03:05 | -32.79353 | 147.61774 | 35387 ft | 492 kts | 300° |
| 2026-04-25 03:05 | -32.77482 | 147.58373 | 35641 ft | 491 kts | 300° |
| 2026-04-25 03:05 | -32.75613 | 147.54977 | 35877 ft | 490 kts | 300° |
| 2026-04-25 03:05 | -32.73747 | 147.51589 | 36102 ft | 490 kts | 300° |
| 2026-04-25 03:06 | -32.71882 | 147.48205 | 36324 ft | 489 kts | 300° |
| 2026-04-25 03:06 | -32.70018 | 147.44828 | 36572 ft | 488 kts | 300° |
| 2026-04-25 03:06 | -32.68158 | 147.41460 | 36775 ft | 488 kts | 300° |
| 2026-04-25 03:06 | -32.66302 | 147.38103 | 37007 ft | 487 kts | 300° |
| 2026-04-25 03:07 | -32.64443 | 147.34745 | 37229 ft | 486 kts | 300° |
| 2026-04-25 03:07 | -32.62589 | 147.31397 | 37455 ft | 484 kts | 300° |
| 2026-04-25 03:07 | -32.60740 | 147.28062 | 37652 ft | 484 kts | 300° |
| 2026-04-25 03:07 | -32.58892 | 147.24732 | 37833 ft | 483 kts | 300° |
| 2026-04-25 03:08 | -32.57046 | 147.21405 | 38020 ft | 483 kts | 299° |
| 2026-04-25 03:08 | -32.55198 | 147.18081 | 38162 ft | 483 kts | 299° |
| 2026-04-25 03:08 | -32.53385 | 147.14820 | 38324 ft | 483 kts | 299° |
| 2026-04-25 03:08 | -32.51498 | 147.11430 | 38350 ft | 485 kts | 299° |
| 2026-04-25 03:09 | -32.47798 | 147.04792 | 38350 ft | 486 kts | 299° |
| 2026-04-25 03:09 | -32.44072 | 146.98122 | 38359 ft | 486 kts | 299° |
| 2026-04-25 03:10 | -32.40344 | 146.91460 | 38344 ft | 486 kts | 299° |
| 2026-04-25 03:10 | -32.36610 | 146.84798 | 38359 ft | 486 kts | 299° |
| 2026-04-25 03:11 | -32.32874 | 146.78145 | 38343 ft | 485 kts | 299° |
| 2026-04-25 03:11 | -32.29145 | 146.71515 | 38355 ft | 485 kts | 299° |
| 2026-04-25 03:12 | -32.25405 | 146.64878 | 38351 ft | 485 kts | 299° |
| 2026-04-25 03:12 | -32.21667 | 146.58255 | 38347 ft | 485 kts | 300° |
| 2026-04-25 03:13 | -32.17925 | 146.51637 | 38346 ft | 485 kts | 300° |
| 2026-04-25 03:13 | -32.14176 | 146.45019 | 38346 ft | 485 kts | 300° |
| 2026-04-25 03:14 | -32.10424 | 146.38407 | 38343 ft | 485 kts | 300° |
| 2026-04-25 03:14 | -32.06669 | 146.31800 | 38344 ft | 485 kts | 299° |
| 2026-04-25 03:15 | -32.02916 | 146.25210 | 38338 ft | 484 kts | 299° |
| 2026-04-25 03:15 | -31.99173 | 146.18647 | 38340 ft | 483 kts | 299° |
| 2026-04-25 03:16 | -31.95412 | 146.12065 | 38335 ft | 483 kts | 300° |
| 2026-04-25 03:16 | -31.91660 | 146.05508 | 38337 ft | 483 kts | 300° |
| 2026-04-25 03:17 | -31.87904 | 145.98956 | 38333 ft | 482 kts | 300° |
| 2026-04-25 03:17 | -31.84153 | 145.92425 | 38333 ft | 482 kts | 300° |
| 2026-04-25 03:18 | -31.80397 | 145.85896 | 38326 ft | 481 kts | 300° |
| 2026-04-25 03:18 | -31.76644 | 145.79383 | 38326 ft | 481 kts | 300° |
| 2026-04-25 03:19 | -31.72892 | 145.72884 | 38326 ft | 480 kts | 300° |
| 2026-04-25 03:19 | -31.69143 | 145.66400 | 38323 ft | 480 kts | 300° |
| 2026-04-25 03:20 | -31.65417 | 145.59967 | 38326 ft | 480 kts | 300° |
| 2026-04-25 03:20 | -31.61664 | 145.53496 | 38317 ft | 480 kts | 300° |
| 2026-04-25 03:21 | -31.57911 | 145.47039 | 38323 ft | 478 kts | 299° |
| 2026-04-25 03:21 | -31.54170 | 145.40613 | 38324 ft | 477 kts | 299° |
| 2026-04-25 03:22 | -31.50426 | 145.34191 | 38318 ft | 477 kts | 299° |
| 2026-04-25 03:22 | -31.48554 | 145.30984 | 38320 ft | 477 kts | 299° |